createdAt,value
2019-03-03T00:00:46.375Z,1006.00
2019-03-03T00:01:46.328Z,1006.02
2019-03-03T00:02:46.283Z,1006.04
2019-03-03T00:03:46.233Z,1006.04
2019-03-03T00:04:46.185Z,1006.03
2019-03-03T00:05:46.137Z,1006.00
2019-03-03T00:06:46.092Z,1005.98
2019-03-03T00:07:46.044Z,1005.99
2019-03-03T00:08:45.998Z,1005.98
2019-03-03T00:09:46.049Z,1005.96
2019-03-03T00:10:45.902Z,1006.00
2019-03-03T00:11:45.855Z,1005.90
2019-03-03T00:12:45.808Z,1005.91
2019-03-03T00:13:45.759Z,1005.92
2019-03-03T00:14:45.711Z,1005.87
2019-03-03T00:15:45.665Z,1005.85
2019-03-03T00:16:45.616Z,1005.85
2019-03-03T00:17:45.569Z,1005.81
2019-03-03T00:18:45.533Z,1005.72
2019-03-03T00:19:45.476Z,1005.73
2019-03-03T00:20:45.427Z,1005.68
2019-03-03T00:21:45.381Z,1005.72
2019-03-03T00:22:45.335Z,1005.70
2019-03-03T00:23:45.608Z,1005.70
2019-03-03T00:24:45.239Z,1005.67
2019-03-03T00:25:45.192Z,1005.67
2019-03-03T00:26:45.145Z,1005.62
2019-03-03T00:27:45.098Z,1005.60
2019-03-03T00:28:45.049Z,1005.60
2019-03-03T00:29:45.002Z,1005.60
2019-03-03T00:30:45.055Z,1005.61
2019-03-03T00:31:44.908Z,1005.61
2019-03-03T00:32:44.861Z,1005.58
2019-03-03T00:33:44.813Z,1005.54
2019-03-03T00:34:44.766Z,1005.52
2019-03-03T00:35:44.725Z,1005.52
2019-03-03T00:36:44.670Z,1005.48
2019-03-03T00:37:44.624Z,1005.51
2019-03-03T00:38:44.575Z,1005.50
2019-03-03T00:39:44.529Z,1005.52
2019-03-03T00:40:44.480Z,1005.53
2019-03-03T00:41:44.436Z,1005.47
2019-03-03T00:42:44.387Z,1005.48
2019-03-03T00:43:44.340Z,1005.52
2019-03-03T00:44:45.969Z,1005.50
2019-03-03T00:45:44.246Z,1005.47
2019-03-03T00:46:44.198Z,1005.48
2019-03-03T00:47:44.151Z,1005.43
2019-03-03T00:48:44.103Z,1005.47
2019-03-03T00:49:44.055Z,1005.42
2019-03-03T00:50:44.008Z,1005.44
2019-03-03T00:51:43.961Z,1005.43
2019-03-03T00:52:43.922Z,1005.40
2019-03-03T00:53:43.868Z,1005.42
2019-03-03T00:54:43.820Z,1005.42
2019-03-03T00:55:43.772Z,1005.45
2019-03-03T00:56:43.723Z,1005.42
2019-03-03T00:57:43.677Z,1005.41
2019-03-03T00:58:43.630Z,1005.33
2019-03-03T00:59:43.582Z,1005.31
2019-03-03T01:00:43.535Z,1005.30
2019-03-03T01:01:43.487Z,1005.32
2019-03-03T01:02:43.443Z,1005.31
2019-03-03T01:03:43.393Z,1005.34
2019-03-03T01:04:43.345Z,1005.36
2019-03-03T01:05:43.298Z,1005.36
2019-03-03T01:06:43.251Z,1005.34
2019-03-03T01:07:43.204Z,1005.35
2019-03-03T01:08:43.157Z,1005.34
2019-03-03T01:09:43.115Z,1005.32
2019-03-03T01:10:43.062Z,1005.35
2019-03-03T01:11:43.015Z,1005.32
2019-03-03T01:12:42.969Z,1005.34
2019-03-03T01:13:42.920Z,1005.38
2019-03-03T01:14:42.873Z,1005.32
2019-03-03T01:15:42.825Z,1005.34
2019-03-03T01:16:42.777Z,1005.31
2019-03-03T01:17:42.732Z,1005.34
2019-03-03T01:18:42.683Z,1005.36
2019-03-03T01:19:42.637Z,1005.35
2019-03-03T01:20:42.590Z,1005.32
2019-03-03T01:21:42.545Z,1005.32
2019-03-03T01:22:42.494Z,1005.32
2019-03-03T01:23:42.452Z,1005.28
2019-03-03T01:24:42.402Z,1005.29
2019-03-03T01:25:42.352Z,1005.28
2019-03-03T01:26:42.305Z,1005.29
2019-03-03T01:27:42.258Z,1005.28
2019-03-03T01:28:42.209Z,1005.31
2019-03-03T01:29:42.164Z,1005.30
2019-03-03T01:30:42.115Z,1005.33
2019-03-03T01:31:42.068Z,1005.35
2019-03-03T01:32:42.021Z,1005.33
2019-03-03T01:33:41.974Z,1005.34
2019-03-03T01:34:41.934Z,1005.30
2019-03-03T01:35:41.929Z,1005.31
2019-03-03T01:36:41.830Z,1005.23
2019-03-03T01:37:41.784Z,1005.23
2019-03-03T01:38:41.737Z,1005.22
2019-03-03T01:39:41.689Z,1005.22
2019-03-03T01:40:41.642Z,1005.20
2019-03-03T01:41:41.595Z,1005.19
2019-03-03T01:42:41.548Z,1005.14
2019-03-03T01:43:41.501Z,1005.19
2019-03-03T01:44:41.452Z,1005.11
2019-03-03T01:45:41.723Z,1005.10
2019-03-03T01:46:41.359Z,1005.07
2019-03-03T01:47:41.311Z,1005.02
2019-03-03T01:48:41.263Z,1005.07
2019-03-03T01:49:41.216Z,1005.08
2019-03-03T01:50:41.169Z,1005.01
2019-03-03T01:51:41.122Z,1005.05
2019-03-03T01:52:41.175Z,1005.02
2019-03-03T01:53:41.031Z,1005.09
2019-03-03T01:54:40.980Z,1005.00
2019-03-03T01:55:40.932Z,1004.96
2019-03-03T01:56:40.885Z,1004.98
2019-03-03T01:57:40.840Z,1004.94
2019-03-03T01:58:40.791Z,1004.91
2019-03-03T01:59:40.745Z,1004.92
2019-03-03T02:00:40.696Z,1004.88
2019-03-03T02:01:40.649Z,1004.84
2019-03-03T02:02:40.603Z,1004.78
2019-03-03T02:03:40.555Z,1004.82
2019-03-03T02:04:40.507Z,1004.76
2019-03-03T02:05:40.460Z,1004.76
2019-03-03T02:06:40.412Z,1004.76
2019-03-03T02:07:40.365Z,1004.76
2019-03-03T02:08:40.316Z,1004.76
2019-03-03T02:09:40.270Z,1004.73
2019-03-03T02:10:40.223Z,1004.72
2019-03-03T02:11:40.177Z,1004.72
2019-03-03T02:12:40.130Z,1004.76
2019-03-03T02:13:40.081Z,1004.78
2019-03-03T02:14:40.034Z,1004.75
2019-03-03T02:15:39.989Z,1004.77
2019-03-03T02:16:39.938Z,1004.75
2019-03-03T02:17:39.994Z,1004.73
2019-03-03T02:18:39.847Z,1004.71
2019-03-03T02:19:39.796Z,1004.72
2019-03-03T02:20:39.749Z,1004.71
2019-03-03T02:21:39.702Z,1004.68
2019-03-03T02:22:39.655Z,1004.66
2019-03-03T02:23:39.608Z,1004.61
2019-03-03T02:24:39.560Z,1004.60
2019-03-03T02:25:39.513Z,1004.63
2019-03-03T02:26:39.466Z,1004.63
2019-03-03T02:27:39.419Z,1004.62
2019-03-03T02:28:39.371Z,1004.62
2019-03-03T02:29:39.323Z,1004.56
2019-03-03T02:30:39.281Z,1004.60
2019-03-03T02:31:39.231Z,1004.57
2019-03-03T02:32:39.181Z,1004.61
2019-03-03T02:33:39.137Z,1004.54
2019-03-03T02:34:39.086Z,1004.55
2019-03-03T02:35:39.041Z,1004.57
2019-03-03T02:36:38.993Z,1004.51
2019-03-03T02:37:38.949Z,1004.56
2019-03-03T02:38:38.898Z,1004.51
2019-03-03T02:39:38.852Z,1004.53
2019-03-03T02:40:38.803Z,1004.49
2019-03-03T02:41:38.757Z,1004.48
2019-03-03T02:42:38.722Z,1004.50
2019-03-03T02:43:38.665Z,1004.49
2019-03-03T02:44:38.614Z,1004.46
2019-03-03T02:45:38.567Z,1004.44
2019-03-03T02:46:38.523Z,1004.46
2019-03-03T02:47:38.473Z,1004.48
2019-03-03T02:48:38.424Z,1004.44
2019-03-03T02:49:38.377Z,1004.40
2019-03-03T02:50:38.330Z,1004.41
2019-03-03T02:51:38.283Z,1004.39
2019-03-03T02:52:38.235Z,1004.42
2019-03-03T02:53:38.188Z,1004.39
2019-03-03T02:54:38.141Z,1004.38
2019-03-03T02:55:38.094Z,1004.38
2019-03-03T02:56:38.046Z,1004.40
2019-03-03T02:57:38.049Z,1004.40
2019-03-03T02:58:38.002Z,1004.41
2019-03-03T02:59:37.906Z,1004.39
2019-03-03T03:00:37.864Z,1004.39
2019-03-03T03:01:37.810Z,1004.38
2019-03-03T03:02:37.764Z,1004.38
2019-03-03T03:03:37.718Z,1004.41
2019-03-03T03:04:37.667Z,1004.45
2019-03-03T03:05:37.622Z,1004.40
2019-03-03T03:06:37.573Z,1004.42
2019-03-03T03:07:37.528Z,1004.40
2019-03-03T03:08:37.478Z,1004.43
2019-03-03T03:09:37.431Z,1004.44
2019-03-03T03:10:37.401Z,1004.38
2019-03-03T03:11:37.339Z,1004.35
2019-03-03T03:12:37.292Z,1004.36
2019-03-03T03:13:37.247Z,1004.34
2019-03-03T03:14:37.197Z,1004.29
2019-03-03T03:15:37.153Z,1004.32
2019-03-03T03:16:37.099Z,1004.29
2019-03-03T03:17:37.053Z,1004.25
2019-03-03T03:18:37.006Z,1004.23
2019-03-03T03:19:36.961Z,1004.20
2019-03-03T03:20:36.911Z,1004.21
2019-03-03T03:21:36.869Z,1004.25
2019-03-03T03:22:36.819Z,1004.22
2019-03-03T03:23:36.770Z,1004.19
2019-03-03T03:24:36.722Z,1004.15
2019-03-03T03:25:36.678Z,1004.16
2019-03-03T03:26:36.629Z,1004.15
2019-03-03T03:27:36.581Z,1004.08
2019-03-03T03:28:36.531Z,1004.09
2019-03-03T03:29:36.486Z,1004.03
2019-03-03T03:30:36.438Z,1004.03
2019-03-03T03:31:36.391Z,1004.02
2019-03-03T03:32:36.349Z,1003.98
2019-03-03T03:33:36.296Z,1003.97
2019-03-03T03:34:36.249Z,1003.94
2019-03-03T03:35:36.202Z,1003.93
2019-03-03T03:36:36.976Z,1003.92
2019-03-03T03:37:36.106Z,1003.92
2019-03-03T03:38:36.065Z,1003.94
2019-03-03T03:39:36.013Z,1003.87
2019-03-03T03:40:35.964Z,1003.91
2019-03-03T03:41:35.917Z,1003.89
2019-03-03T03:42:35.869Z,1003.84
2019-03-03T03:43:35.823Z,1003.85
2019-03-03T03:44:35.775Z,1003.80
2019-03-03T03:45:35.727Z,1003.80
2019-03-03T03:46:35.689Z,1003.73
2019-03-03T03:47:35.635Z,1003.72
2019-03-03T03:48:35.586Z,1003.69
2019-03-03T03:49:35.540Z,1003.71
2019-03-03T03:50:35.491Z,1003.65
2019-03-03T03:51:35.444Z,1003.61
2019-03-03T03:52:35.397Z,1003.61
2019-03-03T03:53:35.352Z,1003.59
2019-03-03T03:54:35.303Z,1003.58
2019-03-03T03:55:35.255Z,1003.55
2019-03-03T03:56:35.206Z,1003.57
2019-03-03T03:57:35.164Z,1003.56
2019-03-03T03:58:35.113Z,1003.54
2019-03-03T03:59:35.066Z,1003.52
2019-03-03T04:00:35.017Z,1003.53
2019-03-03T04:01:34.971Z,1003.51
2019-03-03T04:02:34.933Z,1003.51
2019-03-03T04:03:34.876Z,1003.54
2019-03-03T04:04:34.827Z,1003.48
2019-03-03T04:05:34.781Z,1003.53
2019-03-03T04:06:34.734Z,1003.53
2019-03-03T04:07:34.687Z,1003.55
2019-03-03T04:08:34.639Z,1003.53
2019-03-03T04:09:34.591Z,1003.51
2019-03-03T04:10:34.550Z,1003.47
2019-03-03T04:11:34.511Z,1003.44
2019-03-03T04:12:34.451Z,1003.46
2019-03-03T04:13:34.402Z,1003.43
2019-03-03T04:14:34.356Z,1003.38
2019-03-03T04:15:34.313Z,1003.40
2019-03-03T04:16:34.260Z,1003.39
2019-03-03T04:17:34.213Z,1003.35
2019-03-03T04:18:34.167Z,1003.32
2019-03-03T04:19:34.118Z,1003.26
2019-03-03T04:20:34.079Z,1003.25
2019-03-03T04:21:34.027Z,1003.16
2019-03-03T04:22:33.977Z,1003.21
2019-03-03T04:23:33.930Z,1003.16
2019-03-03T04:24:33.885Z,1003.16
2019-03-03T04:25:33.833Z,1003.16
2019-03-03T04:26:33.787Z,1003.16
2019-03-03T04:27:33.740Z,1003.16
2019-03-03T04:28:33.692Z,1003.15
2019-03-03T04:29:33.645Z,1003.14
2019-03-03T04:30:33.598Z,1003.12
2019-03-03T04:31:33.601Z,1003.01
2019-03-03T04:32:33.502Z,1003.07
2019-03-03T04:33:33.455Z,1003.07
2019-03-03T04:34:33.407Z,1003.10
2019-03-03T04:35:33.361Z,1003.08
2019-03-03T04:36:33.313Z,1003.07
2019-03-03T04:37:33.266Z,1003.09
2019-03-03T04:38:33.219Z,1003.12
2019-03-03T04:39:33.175Z,1003.11
2019-03-03T04:40:33.124Z,1003.05
2019-03-03T04:41:33.076Z,1003.09
2019-03-03T04:42:33.030Z,1003.08
2019-03-03T04:43:32.983Z,1003.14
2019-03-03T04:44:32.986Z,1003.08
2019-03-03T04:45:32.888Z,1003.10
2019-03-03T04:46:32.840Z,1003.10
2019-03-03T04:47:32.793Z,1003.13
2019-03-03T04:48:32.745Z,1003.10
2019-03-03T04:49:32.698Z,1003.10
2019-03-03T04:50:32.651Z,1003.07
2019-03-03T04:51:32.605Z,1003.03
2019-03-03T04:52:32.555Z,1003.06
2019-03-03T04:53:32.508Z,1002.99
2019-03-03T04:54:32.467Z,1002.98
2019-03-03T04:55:32.415Z,1002.97
2019-03-03T04:56:32.369Z,1003.01
2019-03-03T04:57:32.319Z,1002.99
2019-03-03T04:58:32.272Z,1003.00
2019-03-03T04:59:32.224Z,1002.91
2019-03-03T05:00:32.176Z,1002.94
2019-03-03T05:01:32.129Z,1002.96
2019-03-03T05:02:32.082Z,1003.02
2019-03-03T05:03:32.035Z,1003.00
2019-03-03T05:04:31.987Z,1002.96
2019-03-03T05:05:31.990Z,1002.99
2019-03-03T05:06:31.893Z,1003.01
2019-03-03T05:07:31.845Z,1003.01
2019-03-03T05:08:31.798Z,1002.99
2019-03-03T05:09:31.752Z,1003.04
2019-03-03T05:10:31.704Z,1003.03
2019-03-03T05:11:31.657Z,1003.01
2019-03-03T05:12:31.607Z,1003.00
2019-03-03T05:13:31.567Z,1002.95
2019-03-03T05:14:31.515Z,1002.92
2019-03-03T05:15:31.471Z,1002.93
2019-03-03T05:16:31.420Z,1002.93
2019-03-03T05:17:31.415Z,1002.91
2019-03-03T05:18:31.325Z,1002.89
2019-03-03T05:19:31.277Z,1002.88
2019-03-03T05:20:31.232Z,1002.86
2019-03-03T05:21:31.183Z,1002.88
2019-03-03T05:22:31.134Z,1002.86
2019-03-03T05:23:31.091Z,1002.87
2019-03-03T05:24:34.275Z,1002.85
2019-03-03T05:25:30.993Z,1002.86
2019-03-03T05:26:30.997Z,1002.87
2019-03-03T05:27:30.899Z,1002.87
2019-03-03T05:28:30.851Z,1002.89
2019-03-03T05:29:30.804Z,1002.87
2019-03-03T05:30:30.757Z,1002.84
2019-03-03T05:31:30.710Z,1002.82
2019-03-03T05:32:30.662Z,1002.78
2019-03-03T05:33:30.615Z,1002.77
2019-03-03T05:34:30.567Z,1002.82
2019-03-03T05:35:30.520Z,1002.80
2019-03-03T05:36:30.473Z,1002.79
2019-03-03T05:37:30.425Z,1002.79
2019-03-03T05:38:30.378Z,1002.72
2019-03-03T05:39:30.331Z,1002.69
2019-03-03T05:40:30.290Z,1002.70
2019-03-03T05:41:30.236Z,1002.69
2019-03-03T05:42:30.190Z,1002.64
2019-03-03T05:43:30.142Z,1002.64
2019-03-03T05:44:30.095Z,1002.60
2019-03-03T05:45:30.048Z,1002.63
2019-03-03T05:46:30.000Z,1002.59
2019-03-03T05:47:30.053Z,1002.60
2019-03-03T05:48:29.904Z,1002.55
2019-03-03T05:49:29.857Z,1002.50
2019-03-03T05:50:29.810Z,1002.49
2019-03-03T05:51:29.763Z,1002.49
2019-03-03T05:52:29.715Z,1002.53
2019-03-03T05:53:29.668Z,1002.48
2019-03-03T05:54:29.624Z,1002.44
2019-03-03T05:55:29.574Z,1002.42
2019-03-03T05:56:29.526Z,1002.46
2019-03-03T05:57:29.478Z,1002.46
2019-03-03T05:58:29.432Z,1002.44
2019-03-03T05:59:29.389Z,1002.52
2019-03-03T06:00:29.336Z,1002.49
2019-03-03T06:01:29.390Z,1002.47
2019-03-03T06:02:29.250Z,1002.47
2019-03-03T06:03:29.195Z,1002.47
2019-03-03T06:04:29.147Z,1002.46
2019-03-03T06:05:29.100Z,1002.44
2019-03-03T06:06:29.052Z,1002.40
2019-03-03T06:07:29.056Z,1002.38
2019-03-03T06:08:28.958Z,1002.44
2019-03-03T06:09:28.911Z,1002.39
2019-03-03T06:10:28.862Z,1002.41
2019-03-03T06:11:28.820Z,1002.34
2019-03-03T06:12:28.774Z,1002.39
2019-03-03T06:13:28.721Z,1002.37
2019-03-03T06:14:28.676Z,1002.36
2019-03-03T06:15:28.627Z,1002.33
2019-03-03T06:16:28.579Z,1002.33
2019-03-03T06:17:28.532Z,1002.37
2019-03-03T06:18:28.483Z,1002.35
2019-03-03T06:19:28.440Z,1002.32
2019-03-03T06:20:28.391Z,1002.33
2019-03-03T06:21:28.342Z,1002.29
2019-03-03T06:22:28.294Z,1002.28
2019-03-03T06:23:28.248Z,1002.26
2019-03-03T06:24:28.203Z,1002.22
2019-03-03T06:25:28.154Z,1002.25
2019-03-03T06:26:28.106Z,1002.27
2019-03-03T06:27:28.060Z,1002.27
2019-03-03T06:28:28.010Z,1002.25
2019-03-03T06:29:27.963Z,1002.25
2019-03-03T06:30:27.920Z,1002.30
2019-03-03T06:31:27.869Z,1002.28
2019-03-03T06:32:27.821Z,1002.25
2019-03-03T06:33:27.774Z,1002.24
2019-03-03T06:34:27.726Z,1002.25
2019-03-03T06:35:27.680Z,1002.22
2019-03-03T06:36:27.632Z,1002.22
2019-03-03T06:37:27.587Z,1002.20
2019-03-03T06:38:27.538Z,1002.13
2019-03-03T06:39:27.491Z,1002.07
2019-03-03T06:40:27.443Z,1002.08
2019-03-03T06:41:27.396Z,1002.01
2019-03-03T06:42:27.349Z,1002.03
2019-03-03T06:43:27.301Z,1001.98
2019-03-03T06:44:27.311Z,1001.99
2019-03-03T06:45:27.206Z,1001.99
2019-03-03T06:46:27.159Z,1001.96
2019-03-03T06:47:27.112Z,1002.00
2019-03-03T06:48:27.065Z,1001.95
2019-03-03T06:49:27.017Z,1002.01
2019-03-03T06:50:27.021Z,1001.98
2019-03-03T06:51:26.923Z,1001.98
2019-03-03T06:52:26.875Z,1001.93
2019-03-03T06:53:26.828Z,1001.94
2019-03-03T06:54:26.782Z,1001.93
2019-03-03T06:55:26.734Z,1001.91
2019-03-03T06:56:26.687Z,1001.91
2019-03-03T06:57:26.638Z,1001.94
2019-03-03T06:58:26.593Z,1001.92
2019-03-03T06:59:26.544Z,1001.93
2019-03-03T07:00:26.496Z,1001.92
2019-03-03T07:01:27.317Z,1001.89
2019-03-03T07:02:26.402Z,1001.95
2019-03-03T07:03:26.356Z,1001.88
2019-03-03T07:04:26.306Z,1001.92
2019-03-03T07:05:26.260Z,1001.92
2019-03-03T07:06:26.213Z,1001.93
2019-03-03T07:07:26.172Z,1001.86
2019-03-03T07:08:26.119Z,1001.88
2019-03-03T07:09:26.070Z,1001.78
2019-03-03T07:10:26.025Z,1001.82
2019-03-03T07:11:25.977Z,1001.81
2019-03-03T07:12:25.978Z,1001.82
2019-03-03T07:13:25.881Z,1001.90
2019-03-03T07:14:25.834Z,1001.83
2019-03-03T07:15:25.787Z,1001.81
2019-03-03T07:16:26.474Z,1001.79
2019-03-03T07:17:25.692Z,1001.83
2019-03-03T07:18:25.645Z,1001.78
2019-03-03T07:19:25.599Z,1001.82
2019-03-03T07:20:25.549Z,1001.84
2019-03-03T07:21:25.506Z,1001.86
2019-03-03T07:22:25.456Z,1001.81
2019-03-03T07:23:25.408Z,1001.78
2019-03-03T07:24:25.360Z,1001.81
2019-03-03T07:25:25.313Z,1001.74
2019-03-03T07:26:25.265Z,1001.74
2019-03-03T07:27:25.219Z,1001.73
2019-03-03T07:28:25.171Z,1001.80
2019-03-03T07:29:25.124Z,1001.77
2019-03-03T07:30:25.083Z,1001.75
2019-03-03T07:31:25.029Z,1001.75
2019-03-03T07:32:24.981Z,1001.76
2019-03-03T07:33:25.057Z,1001.77
2019-03-03T07:34:24.888Z,1001.77
2019-03-03T07:35:24.842Z,1001.76
2019-03-03T07:36:24.793Z,1001.76
2019-03-03T07:37:24.745Z,1001.71
2019-03-03T07:38:24.698Z,1001.74
2019-03-03T07:39:24.701Z,1001.70
2019-03-03T07:40:24.603Z,1001.76
2019-03-03T07:41:24.556Z,1001.72
2019-03-03T07:42:24.509Z,1001.73
2019-03-03T07:43:24.462Z,1001.61
2019-03-03T07:44:24.414Z,1001.61
2019-03-03T07:45:24.367Z,1001.62
2019-03-03T07:46:24.320Z,1001.67
2019-03-03T07:47:24.273Z,1001.62
2019-03-03T07:48:24.226Z,1001.64
2019-03-03T07:49:24.178Z,1001.67
2019-03-03T07:50:24.133Z,1001.67
2019-03-03T07:51:24.088Z,1001.64
2019-03-03T07:52:24.036Z,1001.65
2019-03-03T07:53:23.998Z,1001.63
2019-03-03T07:54:23.992Z,1001.67
2019-03-03T07:55:23.895Z,1001.59
2019-03-03T07:56:23.851Z,1001.58
2019-03-03T07:57:23.800Z,1001.49
2019-03-03T07:58:23.753Z,1001.46
2019-03-03T07:59:23.707Z,1001.56
2019-03-03T08:00:23.658Z,1001.57
2019-03-03T08:01:23.610Z,1001.55
2019-03-03T08:02:23.563Z,1001.58
2019-03-03T08:03:23.517Z,1001.55
2019-03-03T08:04:23.470Z,1001.56
2019-03-03T08:05:23.422Z,1001.59
2019-03-03T08:06:23.375Z,1001.59
2019-03-03T08:07:23.327Z,1001.57
2019-03-03T08:08:23.279Z,1001.59
2019-03-03T08:09:23.233Z,1001.53
2019-03-03T08:10:23.185Z,1001.55
2019-03-03T08:11:23.140Z,1001.50
2019-03-03T08:12:23.091Z,1001.48
2019-03-03T08:13:23.044Z,1001.54
2019-03-03T08:14:23.047Z,1001.53
2019-03-03T08:15:22.951Z,1001.48
2019-03-03T08:16:22.902Z,1001.46
2019-03-03T08:17:22.854Z,1001.42
2019-03-03T08:18:22.808Z,1001.38
2019-03-03T08:19:22.761Z,1001.42
2019-03-03T08:20:22.713Z,1001.44
2019-03-03T08:21:22.667Z,1001.38
2019-03-03T08:22:22.619Z,1001.32
2019-03-03T08:23:22.572Z,1001.23
2019-03-03T08:24:22.524Z,1001.31
2019-03-03T08:25:22.477Z,1001.29
2019-03-03T08:26:22.432Z,1001.33
2019-03-03T08:27:22.383Z,1001.35
2019-03-03T08:28:22.336Z,1001.38
2019-03-03T08:29:22.288Z,1001.35
2019-03-03T08:30:22.241Z,1001.33
2019-03-03T08:31:22.195Z,1001.34
2019-03-03T08:32:22.150Z,1001.31
2019-03-03T08:33:22.100Z,1001.24
2019-03-03T08:34:22.052Z,1001.20
2019-03-03T08:35:22.006Z,1001.27
2019-03-03T08:36:22.008Z,1001.28
2019-03-03T08:37:21.961Z,1001.27
2019-03-03T08:38:21.865Z,1001.41
2019-03-03T08:39:21.816Z,1001.28
2019-03-03T08:40:21.769Z,1001.25
2019-03-03T08:41:21.722Z,1001.21
2019-03-03T08:42:21.674Z,1001.16
2019-03-03T08:43:21.628Z,1001.24
2019-03-03T08:44:21.580Z,1001.22
2019-03-03T08:45:21.534Z,1001.31
2019-03-03T08:46:21.486Z,1001.36
2019-03-03T08:47:21.439Z,1001.37
2019-03-03T08:48:21.392Z,1001.37
2019-03-03T08:49:21.345Z,1001.35
2019-03-03T08:50:21.298Z,1001.34
2019-03-03T08:51:21.252Z,1001.30
2019-03-03T08:52:21.303Z,1001.38
2019-03-03T08:53:21.156Z,1001.40
2019-03-03T08:54:21.109Z,1001.34
2019-03-03T08:55:21.062Z,1001.33
2019-03-03T08:56:21.014Z,1001.41
2019-03-03T08:57:20.967Z,1001.36
2019-03-03T08:58:20.920Z,1001.32
2019-03-03T08:59:20.874Z,1001.29
2019-03-03T09:00:20.825Z,1001.42
2019-03-03T09:01:20.781Z,1001.33
2019-03-03T09:02:20.731Z,1001.33
2019-03-03T09:03:20.685Z,1001.33
2019-03-03T09:04:20.637Z,1001.39
2019-03-03T09:05:20.590Z,1001.37
2019-03-03T09:06:20.544Z,1001.40
2019-03-03T09:07:20.496Z,1001.42
2019-03-03T09:08:20.448Z,1001.32
2019-03-03T09:09:20.401Z,1001.25
2019-03-03T09:10:25.385Z,1001.30
2019-03-03T09:11:20.307Z,1001.43
2019-03-03T09:12:20.261Z,1001.35
2019-03-03T09:13:20.212Z,1001.32
2019-03-03T09:14:20.169Z,1001.33
2019-03-03T09:15:20.120Z,1001.31
2019-03-03T09:16:20.072Z,1001.34
2019-03-03T09:17:20.024Z,1001.32
2019-03-03T09:18:20.177Z,1001.28
2019-03-03T09:19:19.931Z,1001.25
2019-03-03T09:20:19.882Z,1001.19
2019-03-03T09:21:19.835Z,1001.25
2019-03-03T09:22:19.838Z,1001.35
2019-03-03T09:23:19.742Z,1001.28
2019-03-03T09:24:19.693Z,1001.31
2019-03-03T09:25:19.647Z,1001.35
2019-03-03T09:26:19.599Z,1001.30
2019-03-03T09:27:19.557Z,1001.40
2019-03-03T09:28:19.505Z,1001.32
2019-03-03T09:29:19.463Z,1001.41
2019-03-03T09:30:19.411Z,1001.32
2019-03-03T09:31:19.366Z,1001.39
2019-03-03T09:32:19.316Z,1001.37
2019-03-03T09:33:19.273Z,1001.33
2019-03-03T09:34:19.223Z,1001.36
2019-03-03T09:35:19.177Z,1001.31
2019-03-03T09:36:19.128Z,1001.38
2019-03-03T09:37:19.130Z,1001.31
2019-03-03T09:38:19.034Z,1001.35
2019-03-03T09:39:18.987Z,1001.38
2019-03-03T09:40:18.989Z,1001.36
2019-03-03T09:41:18.893Z,1001.36
2019-03-03T09:42:18.845Z,1001.36
2019-03-03T09:43:18.798Z,1001.29
2019-03-03T09:44:18.752Z,1001.25
2019-03-03T09:45:18.707Z,1001.25
2019-03-03T09:46:18.657Z,1001.33
2019-03-03T09:47:18.610Z,1001.32
2019-03-03T09:48:18.563Z,1001.36
2019-03-03T09:49:18.516Z,1001.30
2019-03-03T09:50:18.468Z,1001.31
2019-03-03T09:51:18.424Z,1001.28
2019-03-03T09:52:18.416Z,1001.31
2019-03-03T09:53:18.327Z,1001.37
2019-03-03T09:54:18.281Z,1001.38
2019-03-03T09:55:18.236Z,1001.37
2019-03-03T09:56:18.184Z,1001.37
2019-03-03T09:57:18.142Z,1001.40
2019-03-03T09:58:18.091Z,1001.42
2019-03-03T09:59:18.044Z,1001.39
2019-03-03T10:00:17.997Z,1001.39
2019-03-03T10:01:17.950Z,1001.41
2019-03-03T10:02:17.905Z,1001.40
2019-03-03T10:03:17.856Z,1001.46
2019-03-03T10:04:17.809Z,1001.46
2019-03-03T10:05:17.761Z,1001.34
2019-03-03T10:06:17.714Z,1001.36
2019-03-03T10:07:17.667Z,1001.35
2019-03-03T10:08:17.619Z,1001.39
2019-03-03T10:09:17.572Z,1001.36
2019-03-03T10:10:17.525Z,1001.43
2019-03-03T10:11:17.479Z,1001.37
2019-03-03T10:12:17.433Z,1001.43
2019-03-03T10:13:17.384Z,1001.37
2019-03-03T10:14:17.337Z,1001.32
2019-03-03T10:15:17.293Z,1001.32
2019-03-03T10:16:17.242Z,1001.38
2019-03-03T10:17:17.196Z,1001.42
2019-03-03T10:18:17.149Z,1001.39
2019-03-03T10:19:17.103Z,1001.41
2019-03-03T10:20:17.054Z,1001.38
2019-03-03T10:21:17.007Z,1001.42
2019-03-03T10:22:16.960Z,1001.49
2019-03-03T10:23:16.914Z,1001.42
2019-03-03T10:24:16.871Z,1001.46
2019-03-03T10:25:16.820Z,1001.46
2019-03-03T10:26:16.772Z,1001.49
2019-03-03T10:27:16.728Z,1001.49
2019-03-03T10:28:16.679Z,1001.52
2019-03-03T10:29:16.631Z,1001.54
2019-03-03T10:30:16.584Z,1001.57
2019-03-03T10:31:16.537Z,1001.47
2019-03-03T10:32:16.493Z,1001.56
2019-03-03T10:33:16.442Z,1001.54
2019-03-03T10:34:16.400Z,1001.51
2019-03-03T10:35:16.348Z,1001.50
2019-03-03T10:36:16.306Z,1001.54
2019-03-03T10:37:16.256Z,1001.55
2019-03-03T10:38:16.210Z,1001.52
2019-03-03T10:39:16.161Z,1001.55
2019-03-03T10:40:16.112Z,1001.50
2019-03-03T10:41:16.066Z,1001.47
2019-03-03T10:42:16.020Z,1001.50
2019-03-03T10:43:15.973Z,1001.46
2019-03-03T10:44:15.974Z,1001.45
2019-03-03T10:45:15.878Z,1001.42
2019-03-03T10:46:15.830Z,1001.43
2019-03-03T10:47:15.785Z,1001.43
2019-03-03T10:48:15.735Z,1001.41
2019-03-03T10:49:15.689Z,1001.49
2019-03-03T10:50:15.642Z,1001.37
2019-03-03T10:51:15.595Z,1001.44
2019-03-03T10:52:15.548Z,1001.47
2019-03-03T10:53:15.502Z,1001.54
2019-03-03T10:54:15.457Z,1001.53
2019-03-03T10:55:15.406Z,1001.47
2019-03-03T10:56:15.359Z,1001.46
2019-03-03T10:57:15.314Z,1001.44
2019-03-03T10:58:15.266Z,1001.44
2019-03-03T10:59:15.220Z,1001.38
2019-03-03T11:00:15.170Z,1001.41
2019-03-03T11:01:15.125Z,1001.42
2019-03-03T11:02:15.077Z,1001.36
2019-03-03T11:03:15.029Z,1001.35
2019-03-03T11:04:14.986Z,1001.33
2019-03-03T11:05:14.987Z,1001.40
2019-03-03T11:06:14.889Z,1001.41
2019-03-03T11:07:14.842Z,1001.39
2019-03-03T11:08:14.794Z,1001.37
2019-03-03T11:09:14.748Z,1001.38
2019-03-03T11:10:14.701Z,1001.37
2019-03-03T11:11:14.654Z,1001.40
2019-03-03T11:12:14.606Z,1001.41
2019-03-03T11:13:14.558Z,1001.38
2019-03-03T11:14:14.512Z,1001.43
2019-03-03T11:15:18.463Z,1001.39
2019-03-03T11:16:14.422Z,1001.39
2019-03-03T11:17:14.373Z,1001.39
2019-03-03T11:18:14.325Z,1001.33
2019-03-03T11:19:14.282Z,1001.38
2019-03-03T11:20:14.230Z,1001.35
2019-03-03T11:21:14.182Z,1001.36
2019-03-03T11:22:14.137Z,1001.36
2019-03-03T11:23:14.089Z,1001.35
2019-03-03T11:24:14.041Z,1001.37
2019-03-03T11:25:13.996Z,1001.38
2019-03-03T11:26:13.947Z,1001.30
2019-03-03T11:27:13.901Z,1001.32
2019-03-03T11:28:23.356Z,1001.31
2019-03-03T11:29:13.812Z,1001.29
2019-03-03T11:30:13.762Z,1001.34
2019-03-03T11:31:13.716Z,1001.36
2019-03-03T11:32:13.666Z,1001.32
2019-03-03T11:33:13.622Z,1001.31
2019-03-03T11:34:13.573Z,1001.28
2019-03-03T11:35:13.525Z,1001.33
2019-03-03T11:36:13.477Z,1001.30
2019-03-03T11:37:14.201Z,1001.27
2019-03-03T11:38:13.385Z,1001.31
2019-03-03T11:39:13.346Z,1001.29
2019-03-03T11:40:13.289Z,1001.31
2019-03-03T11:41:13.243Z,1001.33
2019-03-03T11:42:13.196Z,1001.24
2019-03-03T11:43:13.149Z,1001.27
2019-03-03T11:44:13.102Z,1001.26
2019-03-03T11:45:13.055Z,1001.24
2019-03-03T11:46:13.063Z,1001.29
2019-03-03T11:47:12.961Z,1001.16
2019-03-03T11:48:12.915Z,1001.27
2019-03-03T11:49:12.867Z,1001.25
2019-03-03T11:50:12.820Z,1001.18
2019-03-03T11:51:12.773Z,1001.18
2019-03-03T11:52:12.725Z,1001.18
2019-03-03T11:53:12.678Z,1001.19
2019-03-03T11:54:12.631Z,1001.22
2019-03-03T11:55:12.586Z,1001.16
2019-03-03T11:56:12.538Z,1001.13
2019-03-03T11:57:12.492Z,1001.18
2019-03-03T11:58:12.443Z,1001.15
2019-03-03T11:59:12.397Z,1001.14
2019-03-03T12:00:12.357Z,1001.16
2019-03-03T12:01:12.303Z,1001.19
2019-03-03T12:02:12.254Z,1001.16
2019-03-03T12:03:12.601Z,1001.17
2019-03-03T12:04:12.160Z,1001.11
2019-03-03T12:05:12.114Z,1001.16